Time;durP1;ratioP1;P1;durP2;ratioP2;P2;SDS_P1;SDS_P2;PMS_P1;PMS_P2;Temp;Humidity;BMP_temperature;BMP_pressure;BME280_temperature;BME280_humidity;BME280_pressure;Samples;Min_cycle;Max_cycle;Signal;HPM_P1;HPM_P2
2023/09/07 00:04:26;;;;;;;16.60;10.00;;;;;;;11.84;100.00;99936.89;271905;1273;22300;-86
2023/09/07 00:10:28;;;;;;;17.80;9.90;;;;;;;11.78;100.00;99935.48;272321;1274;22388;-85
2023/09/07 00:16:35;;;;;;;14.80;9.70;;;;;;;11.70;100.00;99933.82;271337;1274;25354;-84
2023/09/07 00:22:44;;;;;;;13.10;9.00;;;;;;;11.65;100.00;99934.27;270827;1275;22520;-84
2023/09/07 00:28:46;;;;;;;14.50;9.40;;;;;;;11.59;100.00;99935.46;269185;1272;25534;-84
2023/09/07 00:34:48;;;;;;;18.90;10.80;;;;;;;11.56;100.00;99933.59;271967;1275;23146;-85
2023/09/07 00:40:50;;;;;;;15.60;9.70;;;;;;;11.52;100.00;99938.43;271738;1272;22437;-85
2023/09/07 00:46:52;;;;;;;15.60;10.20;;;;;;;11.47;100.00;99938.00;270553;1271;22480;-85
2023/09/07 00:52:54;;;;;;;12.40;8.70;;;;;;;11.42;100.00;99940.55;270326;1272;22542;-85
2023/09/07 00:58:59;;;;;;;13.20;10.10;;;;;;;11.34;100.00;99945.84;270058;1272;22645;-85
2023/09/07 01:05:15;;;;;;;14.00;8.50;;;;;;;11.24;100.00;99950.47;270422;1272;22416;-84
2023/09/07 01:11:26;;;;;;;13.20;9.50;;;;;;;11.18;100.00;99946.55;272062;1272;22434;-84
2023/09/07 01:17:49;;;;;;;16.10;8.70;;;;;;;11.12;100.00;99948.23;271523;1266;22554;-84
2023/09/07 01:23:51;;;;;;;16.70;9.70;;;;;;;11.05;100.00;99943.21;271992;1271;22421;-84
2023/09/07 01:29:53;;;;;;;12.60;9.30;;;;;;;10.94;100.00;99936.52;272923;1272;22190;-85
2023/09/07 01:36:03;;;;;;;13.10;7.70;;;;;;;10.95;100.00;99927.08;272718;1272;22440;-84
2023/09/07 01:42:21;;;;;;;12.90;8.70;;;;;;;11.00;100.00;99926.52;272665;1265;22426;-84
2023/09/07 01:48:23;;;;;;;15.00;9.00;;;;;;;11.02;100.00;99926.61;272836;1272;22203;-84
2023/09/07 01:54:25;;;;;;;14.90;9.30;;;;;;;10.98;100.00;99926.36;272875;1270;22208;-84
2023/09/07 02:00:29;;;;;;;18.50;8.70;;;;;;;10.88;100.00;99931.45;271982;1272;22530;-84
2023/09/07 02:06:31;;;;;;;17.70;8.80;;;;;;;10.77;100.00;99931.48;270390;1270;22565;-84
2023/09/07 02:12:33;;;;;;;23.80;8.80;;;;;;;10.70;100.00;99931.46;271393;1272;22186;-85
2023/09/07 02:18:36;;;;;;;15.00;8.90;;;;;;;10.65;100.00;99929.61;272851;1271;22568;-84
2023/09/07 02:24:46;;;;;;;15.20;8.30;;;;;;;10.60;100.00;99933.06;270281;1269;22180;-84
2023/09/07 02:30:48;;;;;;;12.20;8.00;;;;;;;10.57;100.00;99924.48;271916;1256;22401;-86
2023/09/07 02:37:10;;;;;;;15.00;8.60;;;;;;;10.53;100.00;99924.21;273070;1270;22375;-85
2023/09/07 02:43:12;;;;;;;14.10;8.70;;;;;;;10.46;100.00;99925.28;272912;1270;22415;-84
2023/09/07 02:49:14;;;;;;;11.90;7.20;;;;;;;10.39;100.00;99929.80;273122;1272;23490;-85
2023/09/07 02:55:16;;;;;;;14.10;8.30;;;;;;;10.37;100.00;99928.71;272979;1272;22475;-86
2023/09/07 03:01:20;;;;;;;15.10;8.50;;;;;;;10.35;100.00;99931.23;272870;1272;22461;-84
2023/09/07 03:07:24;;;;;;;11.30;6.20;;;;;;;10.27;100.00;99930.94;272962;1272;22429;-84
2023/09/07 03:13:26;;;;;;;17.00;8.30;;;;;;;10.20;100.00;99926.54;273074;1270;22233;-85
2023/09/07 03:19:28;;;;;;;16.00;9.20;;;;;;;10.15;100.00;99924.14;273031;1272;22199;-84
2023/09/07 03:25:30;;;;;;;13.80;8.00;;;;;;;10.14;100.00;99924.65;272931;1272;22171;-84
2023/09/07 03:31:32;;;;;;;12.10;8.20;;;;;;;10.15;100.00;99927.17;273064;1272;22419;-85
2023/09/07 03:37:34;;;;;;;15.20;8.40;;;;;;;10.11;100.00;99930.42;273053;1269;22358;-85
2023/09/07 03:43:36;;;;;;;14.40;9.30;;;;;;;10.08;100.00;99928.16;273089;1270;22193;-84
2023/09/07 03:49:46;;;;;;;12.40;9.20;;;;;;;10.05;100.00;99926.39;273134;1272;23066;-84
2023/09/07 03:55:48;;;;;;;11.70;8.40;;;;;;;10.01;100.00;99924.01;272363;1272;25124;-85
2023/09/07 04:01:53;;;;;;;11.50;8.40;;;;;;;9.96;100.00;99927.22;270462;1272;22555;-84
2023/09/07 04:07:55;;;;;;;15.80;9.20;;;;;;;9.91;100.00;99935.06;269823;1270;22525;-84
2023/09/07 04:13:56;;;;;;;14.00;9.00;;;;;;;9.89;100.00;99942.75;270445;1272;22255;-84
2023/09/07 04:19:58;;;;;;;12.50;8.50;;;;;;;9.88;100.00;99947.02;270187;1271;22562;-84
2023/09/07 04:26:07;;;;;;;14.00;8.50;;;;;;;9.88;100.00;99945.36;270584;1272;22413;-84
2023/09/07 04:32:29;;;;;;;13.50;8.80;;;;;;;9.87;100.00;99948.54;273324;1278;22209;-84
2023/09/07 04:38:31;;;;;;;15.50;8.40;;;;;;;9.85;100.00;99953.63;271732;1272;22551;-84
2023/09/07 04:44:33;;;;;;;12.30;8.00;;;;;;;9.85;100.00;99956.14;272058;1273;22387;-84
2023/09/07 04:50:40;;;;;;;11.10;7.90;;;;;;;9.90;100.00;99961.68;272783;1268;22455;-85
2023/09/07 04:57:00;;;;;;;12.10;8.90;;;;;;;9.99;100.00;99966.23;272537;1272;22177;-84
2023/09/07 05:03:02;;;;;;;12.60;8.40;;;;;;;10.11;100.00;99969.91;273173;1272;22489;-84
2023/09/07 05:09:04;;;;;;;14.40;8.90;;;;;;;10.33;100.00;99973.09;273167;1272;23123;-84
2023/09/07 05:15:07;;;;;;;13.40;8.90;;;;;;;10.55;100.00;99976.75;273037;1271;23226;-85
2023/09/07 05:21:22;;;;;;;16.00;9.40;;;;;;;10.75;100.00;99983.77;272876;1272;22361;-84
2023/09/07 05:27:24;;;;;;;13.40;8.60;;;;;;;11.02;100.00;99982.20;272939;1273;22436;-84
2023/09/07 05:33:26;;;;;;;12.00;8.60;;;;;;;11.32;100.00;99982.37;273052;1254;22178;-84
2023/09/07 05:39:52;;;;;;;16.20;9.40;;;;;;;11.66;100.00;99989.06;273104;1274;23075;-84
2023/09/07 05:45:54;;;;;;;17.70;10.60;;;;;;;12.29;100.00;99991.65;273093;1272;23131;-85
2023/09/07 05:51:56;;;;;;;19.70;12.40;;;;;;;12.91;100.00;99988.77;273101;1270;22389;-84
2023/09/07 05:57:59;;;;;;;19.80;13.00;;;;;;;13.36;100.00;99992.29;273273;1270;22392;-85
2023/09/07 06:04:13;;;;;;;18.70;13.30;;;;;;;13.77;100.00;99993.21;273102;1272;22384;-85
2023/09/07 06:10:17;;;;;;;21.50;13.60;;;;;;;14.08;100.00;99988.61;273045;1270;22370;-85
2023/09/07 06:16:20;;;;;;;22.40;14.50;;;;;;;14.32;100.00;99989.07;273245;1270;22237;-85
2023/09/07 06:22:22;;;;;;;21.30;15.00;;;;;;;14.66;100.00;99989.61;273315;1272;22235;-85
2023/09/07 06:28:28;;;;;;;20.50;14.10;;;;;;;14.98;100.00;99989.85;273357;1278;22209;-85
2023/09/07 06:34:30;;;;;;;19.50;14.40;;;;;;;15.25;100.00;99990.73;272812;1270;22606;-84
2023/09/07 06:41:07;;;;;;;22.50;13.10;;;;;;;15.46;100.00;99995.16;269679;1270;22381;-86
2023/09/07 06:47:09;;;;;;;22.20;12.50;;;;;;;15.70;100.00;99999.44;272124;1270;22363;-84
2023/09/07 06:53:15;;;;;;;17.80;12.00;;;;;;;15.97;100.00;100002.42;273545;1278;22963;-83
2023/09/07 06:59:17;;;;;;;18.00;11.50;;;;;;;16.18;100.00;100001.83;273231;1272;22414;-83
2023/09/07 07:05:20;;;;;;;18.90;10.60;;;;;;;16.32;100.00;100003.48;273219;1271;22357;-83
2023/09/07 07:11:39;;;;;;;13.60;10.20;;;;;;;16.53;100.00;100005.39;272153;1270;22544;-84
2023/09/07 07:17:41;;;;;;;16.20;10.20;;;;;;;16.81;100.00;100009.41;270071;1270;22535;-85
2023/09/07 07:23:54;;;;;;;14.90;9.30;;;;;;;17.06;100.00;100010.70;269619;1273;22540;-85
2023/09/07 07:30:02;;;;;;;11.00;7.50;;;;;;;17.31;100.00;100013.73;270149;1271;22561;-85
2023/09/07 07:36:05;;;;;;;13.20;8.50;;;;;;;17.60;100.00;100019.45;270133;1270;24579;-85
2023/09/07 07:42:07;;;;;;;15.80;8.80;;;;;;;17.91;100.00;100015.05;270934;1270;22174;-86
2023/09/07 07:48:10;;;;;;;13.60;7.60;;;;;;;18.24;100.00;100012.98;272593;1271;22394;-85
2023/09/07 07:54:15;;;;;;;11.10;7.90;;;;;;;18.67;100.00;100013.45;271471;1270;22547;-86
2023/09/07 08:00:18;;;;;;;13.40;8.40;;;;;;;19.08;100.00;100012.08;269960;1267;22552;-85
2023/09/07 08:06:24;;;;;;;15.30;8.40;;;;;;;19.48;100.00;100013.68;269339;1269;22493;-86
2023/09/07 08:12:26;;;;;;;14.80;7.80;;;;;;;19.87;100.00;100015.85;269617;1270;22665;-86
2023/09/07 08:18:32;;;;;;;11.10;7.80;;;;;;;20.20;100.00;100017.66;270126;1270;22504;-86
2023/09/07 08:24:36;;;;;;;12.90;7.70;;;;;;;20.44;100.00;100015.08;271126;1270;22518;-85
2023/09/07 08:30:38;;;;;;;11.00;7.80;;;;;;;20.62;100.00;100014.44;271853;1270;22256;-86
2023/09/07 08:36:40;;;;;;;10.30;7.50;;;;;;;20.74;99.99;100013.09;273277;1270;22424;-85
2023/09/07 08:42:47;;;;;;;10.40;6.90;;;;;;;20.95;99.51;100013.13;273100;1270;22207;-86
2023/09/07 08:48:50;;;;;;;9.60;6.80;;;;;;;21.19;98.72;100013.88;273039;1270;22199;-85
2023/09/07 08:54:52;;;;;;;13.60;6.80;;;;;;;21.44;97.41;100014.26;273173;1271;22373;-86
2023/09/07 09:00:57;;;;;;;9.60;6.60;;;;;;;21.72;96.64;100016.90;272933;1270;22598;-84
2023/09/07 09:07:03;;;;;;;12.70;7.50;;;;;;;22.12;95.85;100018.31;273028;1272;22307;-86
2023/09/07 09:13:11;;;;;;;10.60;6.90;;;;;;;22.61;93.48;100015.89;271037;1264;23110;-86
2023/09/07 09:19:13;;;;;;;11.00;6.20;;;;;;;23.20;92.86;100011.91;271987;1270;22407;-86
2023/09/07 09:25:15;;;;;;;12.30;7.10;;;;;;;23.84;91.78;100013.44;273210;1271;22405;-86
2023/09/07 09:31:37;;;;;;;9.30;6.20;;;;;;;24.53;89.86;100012.15;273498;1272;22224;-86
2023/09/07 09:37:48;;;;;;;8.50;6.40;;;;;;;25.25;87.71;100010.17;273259;1271;22427;-86
2023/09/07 09:43:51;;;;;;;9.90;6.60;;;;;;;25.91;85.18;100009.49;273073;1271;23483;-87
2023/09/07 09:49:53;;;;;;;7.90;5.80;;;;;;;26.62;83.53;100008.33;273518;1272;23249;-87
2023/09/07 09:55:55;;;;;;;8.70;5.90;;;;;;;27.16;80.74;100008.48;273211;1269;22292;-86
2023/09/07 10:01:57;;;;;;;7.30;5.60;;;;;;;27.30;75.42;100005.81;273074;1272;22441;-87
2023/09/07 10:08:07;;;;;;;8.90;5.70;;;;;;;27.32;73.67;100000.73;273015;1270;22174;-86
2023/09/07 10:14:51;;;;;;;13.60;7.90;;;;;;;27.58;71.57;100001.59;273190;1272;23070;-87
2023/09/07 10:21:13;;;;;;;8.60;5.60;;;;;;;27.89;70.26;99995.56;273460;1270;22209;-87
2023/09/07 10:27:15;;;;;;;8.90;5.70;;;;;;;28.32;67.96;99993.77;273132;1272;23397;-86
2023/09/07 10:33:27;;;;;;;8.10;4.70;;;;;;;28.35;65.22;99990.60;273607;1271;22203;-83
2023/09/07 10:39:36;;;;;;;7.40;6.00;;;;;;;28.16;60.87;99984.10;273161;1270;23139;-84
2023/09/07 10:45:39;;;;;;;8.60;5.60;;;;;;;27.72;58.25;99982.12;273159;1270;22241;-87
2023/09/07 10:51:43;;;;;;;8.20;5.50;;;;;;;27.83;58.50;99979.41;272901;1271;22412;-86
2023/09/07 10:57:46;;;;;;;7.80;4.90;;;;;;;28.02;58.39;99973.11;273337;1270;22214;-83
2023/09/07 11:03:48;;;;;;;5.20;4.50;;;;;;;27.91;56.47;99966.20;272963;1270;22384;-84
2023/09/07 11:09:51;;;;;;;5.20;4.30;;;;;;;27.89;56.46;99967.08;271379;1267;23459;-87
2023/09/07 11:15:55;;;;;;;10.50;6.80;;;;;;;27.76;55.34;99966.77;271158;1272;126234;-88
2023/09/07 11:21:59;;;;;;;6.80;4.90;;;;;;;27.46;55.28;99962.48;271995;1270;22465;-88
2023/09/07 11:28:05;;;;;;;5.30;4.40;;;;;;;27.39;54.86;99960.48;270674;1267;22429;-86
2023/09/07 11:34:11;;;;;;;7.30;4.20;;;;;;;27.12;55.16;99966.40;273197;1270;23100;-87
2023/09/07 11:40:14;;;;;;;5.60;4.40;;;;;;;26.89;55.18;99965.41;273038;1270;22229;-85
2023/09/07 11:46:15;;;;;;;8.60;5.10;;;;;;;26.50;54.82;99961.23;273040;1271;22220;-86
2023/09/07 11:52:18;;;;;;;7.70;4.90;;;;;;;26.13;54.68;99958.11;273249;1270;23617;-86
2023/09/07 11:58:26;;;;;;;12.40;5.40;;;;;;;25.78;55.20;99955.85;270705;1270;22703;-87
2023/09/07 12:04:28;;;;;;;6.80;4.90;;;;;;;25.63;56.13;99946.94;272599;1269;22378;-85
2023/09/07 12:10:30;;;;;;;8.90;5.20;;;;;;;25.55;56.32;99949.44;272099;1270;23878;-84
2023/09/07 12:16:32;;;;;;;6.60;5.30;;;;;;;25.31;55.95;99948.83;272036;1270;22275;-88
2023/09/07 12:22:35;;;;;;;8.40;5.80;;;;;;;25.09;56.87;99941.77;271056;1262;22544;-86
2023/09/07 12:28:40;;;;;;;6.30;4.70;;;;;;;25.03;57.20;99939.66;270076;1270;22497;-87
2023/09/07 12:34:42;;;;;;;9.20;6.60;;;;;;;24.96;57.16;99934.54;269893;1269;22619;-85
2023/09/07 12:40:44;;;;;;;5.80;4.80;;;;;;;24.82;56.99;99928.45;270398;1270;25278;-87
2023/09/07 12:46:46;;;;;;;7.50;5.20;;;;;;;24.73;57.13;99926.95;269997;1270;23460;-87
2023/09/07 12:52:48;;;;;;;5.00;4.30;;;;;;;24.62;57.53;99924.04;270012;1270;23376;-87
2023/09/07 12:58:52;;;;;;;6.00;4.30;;;;;;;24.65;57.23;99924.39;273210;1270;23464;-87
2023/09/07 13:04:57;;;;;;;9.00;4.30;;;;;;;24.56;57.69;99920.47;270906;1271;23895;-88
2023/09/07 13:11:00;;;;;;;6.80;5.00;;;;;;;24.47;57.57;99914.67;269494;1272;22548;-86
2023/09/07 13:17:16;;;;;;;;;;;;;;;24.45;57.77;99911.41;269921;1270;25370;-86
2023/09/07 13:23:20;;;;;;;7.20;5.00;;;;;;;24.41;58.36;99904.26;270346;1270;22554;-87
2023/09/07 13:29:23;;;;;;;6.30;5.10;;;;;;;24.36;58.88;99908.23;269277;1272;23021;-88
2023/09/07 13:35:27;;;;;;;7.80;5.40;;;;;;;24.36;59.44;99904.39;272438;1272;22378;-86
2023/09/07 13:41:30;;;;;;;11.70;5.60;;;;;;;24.34;59.22;99905.17;272926;1271;22434;-87
2023/09/07 13:47:31;;;;;;;7.50;5.30;;;;;;;24.29;59.51;99901.64;269822;1271;22568;-87
2023/09/07 13:53:33;;;;;;;7.10;4.60;;;;;;;24.20;59.95;99899.61;273156;1272;22216;-86
2023/09/07 13:59:42;;;;;;;6.40;4.30;;;;;;;24.17;60.29;99895.29;272900;1272;23221;-89
2023/09/07 14:05:51;;;;;;;11.60;5.10;;;;;;;24.13;60.30;99890.48;272603;1270;22907;-87
2023/09/07 14:11:59;;;;;;;5.80;4.60;;;;;;;24.02;60.58;99888.73;270286;1265;23529;-87
2023/09/07 14:18:11;;;;;;;6.60;4.70;;;;;;;24.03;60.61;99887.41;270566;1270;22990;-87
2023/09/07 14:24:19;;;;;;;6.20;4.80;;;;;;;24.01;60.89;99883.06;271737;1272;22406;-87
2023/09/07 14:30:22;;;;;;;4.80;3.90;;;;;;;24.00;60.54;99883.58;272852;1271;22364;-85
2023/09/07 14:36:27;;;;;;;6.60;4.30;;;;;;;23.97;59.92;99875.67;271943;1270;22390;-87
2023/09/07 14:43:00;;;;;;;8.80;5.30;;;;;;;23.91;59.48;99874.48;272997;1270;22399;-88
2023/09/07 14:49:09;;;;;;;7.00;4.30;;;;;;;23.86;59.68;99875.16;271972;1271;22588;-87
2023/09/07 14:56:03;;;;;;;5.40;3.80;;;;;;;23.83;60.08;99870.71;269729;1271;22533;-88
2023/09/07 15:02:56;;;;;;;7.50;4.00;;;;;;;23.75;60.42;99868.46;270544;1272;23648;-87
2023/09/07 15:09:04;;;;;;;7.00;4.10;;;;;;;23.66;60.25;99864.64;270284;1270;22418;-86
2023/09/07 15:15:13;;;;;;;9.80;4.60;;;;;;;23.62;60.38;99862.30;271347;1271;23669;-86
2023/09/07 15:21:15;;;;;;;4.80;3.60;;;;;;;23.58;60.03;99857.95;271041;1272;23426;-86
2023/09/07 15:27:17;;;;;;;6.30;4.20;;;;;;;23.52;59.60;99856.67;270593;1270;24209;-88
2023/09/07 15:33:22;;;;;;;5.00;4.20;;;;;;;23.45;59.66;99854.20;270221;1272;22596;-87
2023/09/07 15:39:31;;;;;;;7.10;4.40;;;;;;;23.40;59.74;99855.86;270849;1270;22327;-87
2023/09/07 15:45:36;;;;;;;7.40;4.50;;;;;;;23.35;59.94;99858.48;272706;1270;22349;-88
2023/09/07 15:51:38;;;;;;;9.00;4.90;;;;;;;23.25;60.57;99855.05;272723;1270;22246;-87
2023/09/07 15:57:40;;;;;;;7.50;5.90;;;;;;;23.16;60.96;99848.72;272906;1271;22402;-88
2023/09/07 16:03:42;;;;;;;7.40;5.50;;;;;;;23.12;60.98;99849.09;273000;1272;22402;-88
2023/09/07 16:09:46;;;;;;;6.30;4.90;;;;;;;23.05;61.26;99850.37;272158;1270;22469;-88
2023/09/07 16:16:03;;;;;;;7.30;4.80;;;;;;;22.96;61.71;99852.14;272595;1272;22438;-88
2023/09/07 16:22:08;;;;;;;8.70;5.70;;;;;;;22.88;62.11;99853.23;272241;1270;22403;-87
2023/09/07 16:28:10;;;;;;;9.20;5.60;;;;;;;22.79;62.64;99854.01;271782;1271;22341;-87
2023/09/07 16:34:12;;;;;;;7.80;5.70;;;;;;;22.68;63.38;99851.96;271953;1271;24205;-89
2023/09/07 16:41:06;;;;;;;11.50;5.80;;;;;;;22.55;64.09;99852.66;271907;1270;22615;-88
2023/09/07 16:47:41;;;;;;;8.80;6.50;;;;;;;22.32;65.42;99850.95;272402;1272;22390;-88
2023/09/07 16:53:44;;;;;;;7.60;6.20;;;;;;;22.09;66.43;99851.55;272782;1271;23571;-89
2023/09/07 16:59:46;;;;;;;9.90;6.50;;;;;;;21.92;68.59;99857.81;265229;1271;10001692;-89
2023/09/07 17:05:48;;;;;;;8.60;6.80;;;;;;;21.70;70.44;99865.81;272944;1271;22204;-88
2023/09/07 17:11:53;;;;;;;11.10;6.90;;;;;;;21.45;71.41;99868.60;272800;1270;23178;-89
2023/09/07 17:17:57;;;;;;;9.90;6.30;;;;;;;21.14;72.27;99869.98;272795;1271;23389;-86
2023/09/07 17:24:01;;;;;;;9.40;6.10;;;;;;;20.83;72.98;99869.20;272841;1271;22331;-87
2023/09/07 17:30:05;;;;;;;7.50;6.00;;;;;;;20.62;73.87;99869.63;272686;1272;23264;-88
2023/09/07 17:36:17;;;;;;;13.10;7.60;;;;;;;20.35;75.45;99873.60;272753;1272;22345;-88
2023/09/07 17:42:20;;;;;;;15.20;10.50;;;;;;;20.11;76.03;99878.77;272652;1270;23043;-87
2023/09/07 17:48:28;;;;;;;20.20;13.30;;;;;;;19.91;76.81;99874.58;272544;1272;25313;-88
2023/09/07 17:54:42;;;;;;;34.90;20.50;;;;;;;19.61;77.60;99875.89;272561;1272;23228;-88
2023/09/07 18:01:42;;;;;;;37.10;21.50;;;;;;;19.19;78.43;99880.76;272658;1271;23054;-88
2023/09/07 18:08:43;;;;;;;36.00;22.50;;;;;;;18.69;79.86;99882.91;272271;1272;22389;-88
2023/09/07 18:15:30;;;;;;;;;;;;;;;;;;;;;
2023/09/07 18:30:21;;;;;;;16.60;10.80;;;;;;;18.12;83.24;99892.28;272199;1272;22321;-88
2023/09/07 18:36:48;;;;;;;13.30;9.90;;;;;;;17.85;83.93;99897.55;272712;1271;22424;-88
2023/09/07 18:43:02;;;;;;;15.40;9.90;;;;;;;17.57;84.65;99901.51;271423;1272;22161;-87
2023/09/07 18:49:35;;;;;;;15.80;10.70;;;;;;;17.34;85.82;99906.68;272576;1271;23070;-87
2023/09/07 18:55:54;;;;;;;18.40;12.50;;;;;;;17.19;86.80;99905.13;271401;1271;22531;-87
2023/09/07 19:01:57;;;;;;;23.70;16.40;;;;;;;17.04;87.38;99909.55;272180;1272;22457;-87
2023/09/07 19:08:14;;;;;;;23.50;15.20;;;;;;;16.91;88.04;99911.54;271858;1272;22378;-87
2023/09/07 19:14:15;;;;;;;23.50;16.10;;;;;;;16.77;88.70;99911.84;271130;1272;22498;-86
2023/09/07 19:20:18;;;;;;;18.70;13.90;;;;;;;16.64;89.31;99910.81;271245;1272;23985;-87
2023/09/07 19:26:45;;;;;;;12.20;9.80;;;;;;;16.48;89.64;99916.52;271595;1272;22765;-86
2023/09/07 19:32:46;;;;;;;15.10;10.20;;;;;;;16.29;90.39;99913.63;272941;1272;22277;-87
2023/09/07 19:38:54;;;;;;;12.90;9.00;;;;;;;16.15;90.91;99910.03;273057;1273;22377;-87
2023/09/07 19:44:56;;;;;;;22.40;10.10;;;;;;;16.02;91.73;99907.86;272974;1272;22203;-87
2023/09/07 19:50:58;;;;;;;19.00;10.50;;;;;;;15.94;92.22;99904.36;272853;1272;22210;-87
2023/09/07 19:57:01;;;;;;;22.10;13.70;;;;;;;15.87;93.04;99902.83;272819;1272;23417;-88
2023/09/07 20:03:03;;;;;;;19.60;10.60;;;;;;;15.81;93.49;99900.44;272815;1272;22336;-87
2023/09/07 20:09:11;;;;;;;18.00;10.70;;;;;;;15.70;93.86;99900.70;272919;1272;22894;-87
2023/09/07 20:15:36;;;;;;;20.00;12.20;;;;;;;15.60;94.22;99896.95;272802;1272;22347;-87
2023/09/07 20:21:38;;;;;;;17.80;11.80;;;;;;;15.53;94.61;99894.00;272753;1272;22204;-87
2023/09/07 20:27:40;;;;;;;15.80;10.50;;;;;;;15.42;95.06;99890.06;272669;1270;22334;-87
2023/09/07 20:33:41;;;;;;;19.00;11.70;;;;;;;15.33;95.45;99894.09;272905;1272;22263;-87
2023/09/07 20:39:43;;;;;;;16.30;10.20;;;;;;;15.24;95.92;99887.80;272812;1267;23436;-87
2023/09/07 20:45:45;;;;;;;14.80;9.80;;;;;;;15.16;96.26;99881.75;273037;1272;22315;-86
2023/09/07 20:51:47;;;;;;;12.90;10.40;;;;;;;15.10;96.81;99877.77;272649;1272;22534;-87
2023/09/07 20:57:51;;;;;;;17.10;10.40;;;;;;;15.00;97.07;99876.19;269484;1272;22535;-87
2023/09/07 21:03:54;;;;;;;23.90;12.10;;;;;;;14.90;97.62;99875.81;272417;1272;22195;-87
2023/09/07 21:09:56;;;;;;;23.30;12.80;;;;;;;14.83;98.15;99871.82;272444;1259;22620;-87
2023/09/07 21:15:57;;;;;;;18.70;11.30;;;;;;;14.76;98.73;99871.45;272967;1272;23154;-87
2023/09/07 21:21:59;;;;;;;22.70;11.40;;;;;;;14.72;99.07;99871.56;273058;1275;22953;-87
2023/09/07 21:28:01;;;;;;;13.70;9.30;;;;;;;14.70;99.71;99868.02;273074;1273;22439;-87
2023/09/07 21:34:02;;;;;;;13.70;9.50;;;;;;;14.82;100.00;99870.00;273086;1272;23079;-87
2023/09/07 21:40:05;;;;;;;14.90;10.10;;;;;;;14.83;100.00;99869.45;272819;1271;22173;-87
2023/09/07 21:46:07;;;;;;;17.20;9.60;;;;;;;14.74;100.00;99875.75;272873;1272;22358;-87
2023/09/07 21:52:08;;;;;;;15.30;10.50;;;;;;;14.71;100.00;99872.50;273065;1272;22175;-87
2023/09/07 21:58:10;;;;;;;16.20;11.60;;;;;;;14.61;100.00;99873.45;273140;1272;22249;-87
2023/09/07 22:04:26;;;;;;;17.50;12.50;;;;;;;14.48;100.00;99872.14;273336;1278;23294;-87
2023/09/07 22:10:28;;;;;;;19.60;12.40;;;;;;;14.35;100.00;99872.33;273213;1272;22339;-87
2023/09/07 22:16:29;;;;;;;19.70;12.50;;;;;;;14.23;100.00;99870.54;273201;1270;22193;-86
2023/09/07 22:22:31;;;;;;;20.50;12.20;;;;;;;14.11;100.00;99870.96;272877;1270;22847;-87
2023/09/07 22:28:33;;;;;;;17.00;12.30;;;;;;;14.02;100.00;99873.14;273026;1273;22357;-87
2023/09/07 22:34:34;;;;;;;17.30;11.50;;;;;;;13.96;100.00;99875.66;273251;1274;22195;-87
2023/09/07 22:40:42;;;;;;;18.50;11.70;;;;;;;13.99;100.00;99878.13;273165;1271;22272;-86
2023/09/07 22:46:45;;;;;;;19.20;12.70;;;;;;;14.07;100.00;99878.38;273259;1272;22206;-87
2023/09/07 22:52:47;;;;;;;16.30;11.50;;;;;;;13.95;100.00;99875.49;273108;1272;22323;-86
2023/09/07 22:59:09;;;;;;;18.50;12.20;;;;;;;13.78;100.00;99876.40;273216;1267;22203;-86
2023/09/07 23:05:10;;;;;;;18.40;12.10;;;;;;;13.63;100.00;99875.98;273290;1273;22168;-86
2023/09/07 23:11:32;;;;;;;19.70;12.20;;;;;;;13.54;100.00;99881.83;273072;1272;22180;-86
2023/09/07 23:17:34;;;;;;;20.30;13.60;;;;;;;13.33;100.00;99887.52;272935;1273;123239;-85
2023/09/07 23:23:36;;;;;;;20.70;13.20;;;;;;;13.21;100.00;99885.45;273264;1272;22219;-86
2023/09/07 23:29:39;;;;;;;19.50;13.00;;;;;;;13.18;100.00;99885.70;273064;1270;22321;-86
2023/09/07 23:35:41;;;;;;;19.80;13.50;;;;;;;13.15;100.00;99894.93;270683;1272;23873;-85
2023/09/07 23:41:42;;;;;;;19.10;13.40;;;;;;;13.05;100.00;99893.70;269651;1271;22555;-86
2023/09/07 23:47:44;;;;;;;20.70;12.70;;;;;;;13.02;100.00;99885.23;269262;1272;22577;-85
2023/09/07 23:54:07;;;;;;;17.00;11.70;;;;;;;13.01;100.00;99881.60;271877;1272;22262;-85
